sensor_id;sensor_type;location;lat;lon;timestamp;pressure;altitude;pressure_sealevel;temperature;humidity
48035;BME280;33812;46.480;6.834;2023-11-19T00:00:08;94168.50;;;21.44;40.14
48035;BME280;33812;46.480;6.834;2023-11-19T00:04:12;94164.19;;;21.43;40.13
48035;BME280;33812;46.480;6.834;2023-11-19T00:08:15;94171.25;;;21.44;39.99
48035;BME280;33812;46.480;6.834;2023-11-19T00:12:17;94162.25;;;21.40;39.96
48035;BME280;33812;46.480;6.834;2023-11-19T00:16:20;94160.19;;;21.44;39.88
48035;BME280;33812;46.480;6.834;2023-11-19T00:20:21;94161.84;;;21.42;39.80
48035;BME280;33812;46.480;6.834;2023-11-19T00:24:25;94153.13;;;21.43;39.76
48035;BME280;33812;46.480;6.834;2023-11-19T00:28:26;94149.13;;;21.44;39.90
48035;BME280;33812;46.480;6.834;2023-11-19T00:32:29;94142.91;;;21.40;39.87
48035;BME280;33812;46.480;6.834;2023-11-19T00:36:30;94136.09;;;21.45;39.75
48035;BME280;33812;46.480;6.834;2023-11-19T00:40:34;94123.03;;;21.45;39.99
48035;BME280;33812;46.480;6.834;2023-11-19T00:44:36;94115.97;;;21.44;39.21
48035;BME280;33812;46.480;6.834;2023-11-19T00:48:37;94117.19;;;21.43;39.55
48035;BME280;33812;46.480;6.834;2023-11-19T00:52:39;94121.41;;;21.48;39.30
48035;BME280;33812;46.480;6.834;2023-11-19T00:56:42;94105.25;;;21.46;39.37
48035;BME280;33812;46.480;6.834;2023-11-19T01:00:45;94112.75;;;21.46;39.47
48035;BME280;33812;46.480;6.834;2023-11-19T01:04:47;94113.19;;;21.44;39.32
48035;BME280;33812;46.480;6.834;2023-11-19T01:08:51;94108.88;;;21.43;39.29
48035;BME280;33812;46.480;6.834;2023-11-19T01:12:55;94101.88;;;21.38;39.39
48035;BME280;33812;46.480;6.834;2023-11-19T01:16:56;94113.63;;;21.43;39.17
48035;BME280;33812;46.480;6.834;2023-11-19T01:20:58;94102.56;;;21.43;39.37
48035;BME280;33812;46.480;6.834;2023-11-19T01:25:00;94109.72;;;21.40;39.36
48035;BME280;33812;46.480;6.834;2023-11-19T01:29:04;94111.38;;;21.37;39.29
48035;BME280;33812;46.480;6.834;2023-11-19T01:33:06;94112.41;;;21.44;39.27
48035;BME280;33812;46.480;6.834;2023-11-19T01:37:08;94111.28;;;21.41;39.18
48035;BME280;33812;46.480;6.834;2023-11-19T01:41:12;94107.31;;;21.42;39.17
48035;BME280;33812;46.480;6.834;2023-11-19T01:45:22;94104.91;;;21.44;39.24
48035;BME280;33812;46.480;6.834;2023-11-19T01:49:28;94116.75;;;21.45;39.12
48035;BME280;33812;46.480;6.834;2023-11-19T01:53:32;94108.09;;;21.43;39.14
48035;BME280;33812;46.480;6.834;2023-11-19T01:57:35;94107.66;;;21.44;39.20
48035;BME280;33812;46.480;6.834;2023-11-19T02:01:42;94102.13;;;21.44;39.25
48035;BME280;33812;46.480;6.834;2023-11-19T02:05:45;94109.63;;;21.44;39.08
48035;BME280;33812;46.480;6.834;2023-11-19T02:09:49;94093.84;;;21.44;39.14
48035;BME280;33812;46.480;6.834;2023-11-19T02:13:51;94096.59;;;21.44;39.00
48035;BME280;33812;46.480;6.834;2023-11-19T02:17:54;94088.31;;;21.44;39.04
48035;BME280;33812;46.480;6.834;2023-11-19T02:21:56;94086.69;;;21.47;38.95
48035;BME280;33812;46.480;6.834;2023-11-19T02:26:02;94078.78;;;21.45;38.96
48035;BME280;33812;46.480;6.834;2023-11-19T02:30:08;94081.16;;;21.47;38.95
48035;BME280;33812;46.480;6.834;2023-11-19T02:34:10;94084.66;;;21.47;38.89
48035;BME280;33812;46.480;6.834;2023-11-19T02:38:13;94074.41;;;21.48;38.87
48035;BME280;33812;46.480;6.834;2023-11-19T02:42:15;94067.66;;;21.49;38.96
48035;BME280;33812;46.480;6.834;2023-11-19T02:46:19;94051.13;;;21.45;38.88
48035;BME280;33812;46.480;6.834;2023-11-19T02:50:20;94051.13;;;21.45;38.83
48035;BME280;33812;46.480;6.834;2023-11-19T02:54:25;94044.31;;;21.50;38.78
48035;BME280;33812;46.480;6.834;2023-11-19T02:58:28;94042.53;;;21.43;38.84
48035;BME280;33812;46.480;6.834;2023-11-19T03:02:31;94041.75;;;21.43;38.89
48035;BME280;33812;46.480;6.834;2023-11-19T03:06:47;94037.84;;;21.40;38.70
48035;BME280;33812;46.480;6.834;2023-11-19T03:10:49;94050.47;;;21.41;38.77
48035;BME280;33812;46.480;6.834;2023-11-19T03:14:52;94046.91;;;21.41;38.82
48035;BME280;33812;46.480;6.834;2023-11-19T03:18:55;94034.66;;;21.42;38.69
48035;BME280;33812;46.480;6.834;2023-11-19T03:22:57;94035.84;;;21.41;38.77
48035;BME280;33812;46.480;6.834;2023-11-19T03:26:59;94042.53;;;21.43;38.69
48035;BME280;33812;46.480;6.834;2023-11-19T03:31:04;94049.59;;;21.44;38.74
48035;BME280;33812;46.480;6.834;2023-11-19T03:35:10;94039.41;;;21.41;38.63
48035;BME280;33812;46.480;6.834;2023-11-19T03:39:12;94044.41;;;21.46;38.80
48035;BME280;33812;46.480;6.834;2023-11-19T03:43:14;94029.44;;;21.44;38.74
48035;BME280;33812;46.480;6.834;2023-11-19T03:47:16;94021.25;;;21.40;38.77
48035;BME280;33812;46.480;6.834;2023-11-19T03:51:19;94015.72;;;21.40;38.53
48035;BME280;33812;46.480;6.834;2023-11-19T03:55:21;94018.06;;;21.42;38.68
48035;BME280;33812;46.480;6.834;2023-11-19T03:59:23;94021.41;;;21.49;38.64
48035;BME280;33812;46.480;6.834;2023-11-19T04:03:25;94016.31;;;21.48;38.70
48035;BME280;33812;46.480;6.834;2023-11-19T04:07:28;94019.19;;;21.44;38.65
48035;BME280;33812;46.480;6.834;2023-11-19T04:11:30;94009.25;;;21.47;38.71
48035;BME280;33812;46.480;6.834;2023-11-19T04:15:33;94018.31;;;21.47;38.66
48035;BME280;33812;46.480;6.834;2023-11-19T04:19:34;94021.06;;;21.47;38.59
48035;BME280;33812;46.480;6.834;2023-11-19T04:23:38;94012.03;;;21.47;38.64
48035;BME280;33812;46.480;6.834;2023-11-19T04:27:39;94011.16;;;21.50;38.51
48035;BME280;33812;46.480;6.834;2023-11-19T04:31:41;94013.13;;;21.49;38.59
48035;BME280;33812;46.480;6.834;2023-11-19T04:35:43;94012.44;;;21.45;38.58
48035;BME280;33812;46.480;6.834;2023-11-19T04:39:46;94020.72;;;21.45;38.69
48035;BME280;33812;46.480;6.834;2023-11-19T04:43:48;94025.84;;;21.47;38.61
48035;BME280;33812;46.480;6.834;2023-11-19T04:47:50;94022.47;;;21.39;38.35
48035;BME280;33812;46.480;6.834;2023-11-19T04:51:52;94022.38;;;21.43;38.38
48035;BME280;33812;46.480;6.834;2023-11-19T04:55:55;94021.25;;;21.40;38.67
48035;BME280;33812;46.480;6.834;2023-11-19T04:59:57;94024.81;;;21.41;38.54
48035;BME280;33812;46.480;6.834;2023-11-19T05:03:59;94033.88;;;21.41;38.67
48035;BME280;33812;46.480;6.834;2023-11-19T05:08:01;94028.00;;;21.39;38.71
48035;BME280;33812;46.480;6.834;2023-11-19T05:12:05;94014.09;;;21.43;38.70
48035;BME280;33812;46.480;6.834;2023-11-19T05:16:09;94014.88;;;21.43;38.68
48035;BME280;33812;46.480;6.834;2023-11-19T05:20:10;94012.44;;;21.45;38.61
48035;BME280;33812;46.480;6.834;2023-11-19T05:24:14;94018.75;;;21.46;38.65
48035;BME280;33812;46.480;6.834;2023-11-19T05:28:17;94010.88;;;21.44;38.65
48035;BME280;33812;46.480;6.834;2023-11-19T05:32:19;94008.47;;;21.46;38.59
48035;BME280;33812;46.480;6.834;2023-11-19T05:36:21;94004.13;;;21.45;38.44
48035;BME280;33812;46.480;6.834;2023-11-19T05:40:23;94009.13;;;21.50;38.48
48035;BME280;33812;46.480;6.834;2023-11-19T05:44:26;93994.91;;;21.52;38.41
48035;BME280;33812;46.480;6.834;2023-11-19T05:48:28;94004.75;;;21.53;38.31
48035;BME280;33812;46.480;6.834;2023-11-19T05:52:31;93998.69;;;21.58;38.38
48035;BME280;33812;46.480;6.834;2023-11-19T05:56:34;93999.56;;;21.55;38.40
48035;BME280;33812;46.480;6.834;2023-11-19T06:00:37;93991.25;;;21.55;38.34
48035;BME280;33812;46.480;6.834;2023-11-19T06:04:39;93988.50;;;21.55;38.48
48035;BME280;33812;46.480;6.834;2023-11-19T06:08:42;93991.16;;;21.59;38.11
48035;BME280;33812;46.480;6.834;2023-11-19T06:12:45;93993.94;;;21.59;38.28
48035;BME280;33812;46.480;6.834;2023-11-19T06:16:48;93993.94;;;21.59;38.14
48035;BME280;33812;46.480;6.834;2023-11-19T06:20:49;93976.47;;;21.62;38.27
48035;BME280;33812;46.480;6.834;2023-11-19T06:24:51;93989.16;;;21.59;38.06
48035;BME280;33812;46.480;6.834;2023-11-19T06:28:53;93985.19;;;21.60;38.13
48035;BME280;33812;46.480;6.834;2023-11-19T06:32:56;93988.06;;;21.57;38.13
48035;BME280;33812;46.480;6.834;2023-11-19T06:36:58;93991.06;;;21.62;37.84
48035;BME280;33812;46.480;6.834;2023-11-19T06:41:00;94004.13;;;21.62;38.02
48035;BME280;33812;46.480;6.834;2023-11-19T06:45:02;94003.25;;;21.65;37.85
48035;BME280;33812;46.480;6.834;2023-11-19T06:49:06;94011.53;;;21.65;38.05
48035;BME280;33812;46.480;6.834;2023-11-19T06:53:08;94019.06;;;21.65;38.46
48035;BME280;33812;46.480;6.834;2023-11-19T06:57:11;94038.00;;;21.66;38.68
48035;BME280;33812;46.480;6.834;2023-11-19T07:01:13;94029.34;;;21.64;38.72
48035;BME280;33812;46.480;6.834;2023-11-19T07:05:17;94037.22;;;21.66;39.33
48035;BME280;33812;46.480;6.834;2023-11-19T07:09:18;94037.31;;;21.62;39.22
48035;BME280;33812;46.480;6.834;2023-11-19T07:13:21;94038.84;;;21.63;39.23
48035;BME280;33812;46.480;6.834;2023-11-19T07:17:23;94048.38;;;21.62;39.41
48035;BME280;33812;46.480;6.834;2023-11-19T07:21:27;94059.44;;;21.62;39.22
48035;BME280;33812;46.480;6.834;2023-11-19T07:25:30;94050.97;;;21.53;39.59
48035;BME280;33812;46.480;6.834;2023-11-19T07:29:31;94064.53;;;21.64;39.38
48035;BME280;33812;46.480;6.834;2023-11-19T07:33:33;94063.41;;;21.61;39.70
48035;BME280;33812;46.480;6.834;2023-11-19T07:37:37;94055.78;;;21.65;40.19
48035;BME280;33812;46.480;6.834;2023-11-19T07:41:39;94059.00;;;21.64;40.24
48035;BME280;33812;46.480;6.834;2023-11-19T07:45:41;94063.31;;;21.65;40.98
48035;BME280;33812;46.480;6.834;2023-11-19T07:49:44;94066.59;;;21.59;40.94
48035;BME280;33812;46.480;6.834;2023-11-19T07:53:47;94065.75;;;21.62;41.27
48035;BME280;33812;46.480;6.834;2023-11-19T07:57:49;94060.97;;;21.63;40.67
48035;BME280;33812;46.480;6.834;2023-11-19T08:01:51;94066.50;;;21.63;40.53
48035;BME280;33812;46.480;6.834;2023-11-19T08:05:55;94070.75;;;21.68;40.58
48035;BME280;33812;46.480;6.834;2023-11-19T08:09:58;94049.06;;;21.66;40.69
48035;BME280;33812;46.480;6.834;2023-11-19T08:14:01;94049.72;;;21.70;40.54
48035;BME280;33812;46.480;6.834;2023-11-19T08:18:03;94057.25;;;21.70;40.39
48035;BME280;33812;46.480;6.834;2023-11-19T08:22:05;94064.69;;;21.73;40.43
48035;BME280;33812;46.480;6.834;2023-11-19T08:26:08;94068.56;;;21.76;40.38
48035;BME280;33812;46.480;6.834;2023-11-19T08:30:11;94073.31;;;21.75;40.34
48035;BME280;33812;46.480;6.834;2023-11-19T08:34:13;94086.81;;;21.73;40.20
48035;BME280;33812;46.480;6.834;2023-11-19T08:38:16;94086.38;;;21.74;40.28
48035;BME280;33812;46.480;6.834;2023-11-19T08:42:19;94099.44;;;21.74;40.04
48035;BME280;33812;46.480;6.834;2023-11-19T08:46:21;94095.44;;;21.75;40.18
48035;BME280;33812;46.480;6.834;2023-11-19T08:50:23;94101.84;;;21.72;40.24
48035;BME280;33812;46.480;6.834;2023-11-19T08:54:24;94097.97;;;21.69;40.18
48035;BME280;33812;46.480;6.834;2023-11-19T08:58:28;94088.81;;;21.72;39.94
48035;BME280;33812;46.480;6.834;2023-11-19T09:02:29;94083.38;;;21.69;40.42
48035;BME280;33812;46.480;6.834;2023-11-19T09:06:33;94085.69;;;21.70;40.63
48035;BME280;33812;46.480;6.834;2023-11-19T09:10:34;94079.38;;;21.70;40.56
48035;BME280;33812;46.480;6.834;2023-11-19T09:14:38;94074.97;;;21.72;40.79
48035;BME280;33812;46.480;6.834;2023-11-19T09:18:40;94089.59;;;21.73;40.79
48035;BME280;33812;46.480;6.834;2023-11-19T09:22:43;94086.81;;;21.73;40.87
48035;BME280;33812;46.480;6.834;2023-11-19T09:26:45;94080.50;;;21.72;40.87
48035;BME280;33812;46.480;6.834;2023-11-19T09:30:48;94092.38;;;21.73;40.84
48035;BME280;33812;46.480;6.834;2023-11-19T09:34:51;94084.50;;;21.71;41.25
48035;BME280;33812;46.480;6.834;2023-11-19T09:38:53;94089.06;;;21.78;41.61
48035;BME280;33812;46.480;6.834;2023-11-19T09:42:56;94088.38;;;21.74;42.04
48035;BME280;33812;46.480;6.834;2023-11-19T09:47:00;94082.69;;;21.81;41.77
48035;BME280;33812;46.480;6.834;2023-11-19T09:51:02;94078.00;;;21.78;42.03
48035;BME280;33812;46.480;6.834;2023-11-19T09:55:04;94074.81;;;21.80;41.98
48035;BME280;33812;46.480;6.834;2023-11-19T09:59:08;94066.88;;;21.82;42.07
48035;BME280;33812;46.480;6.834;2023-11-19T10:03:14;94063.56;;;21.87;42.54
48035;BME280;33812;46.480;6.834;2023-11-19T10:07:17;94079.84;;;21.85;43.01
48035;BME280;33812;46.480;6.834;2023-11-19T10:11:19;94074.31;;;21.85;42.50
48035;BME280;33812;46.480;6.834;2023-11-19T10:15:23;94067.44;;;21.90;42.39
48035;BME280;33812;46.480;6.834;2023-11-19T10:19:34;94050.41;;;21.91;42.40
48035;BME280;33812;46.480;6.834;2023-11-19T10:23:48;94056.81;;;21.88;42.46
48035;BME280;33812;46.480;6.834;2023-11-19T10:27:51;94063.50;;;21.91;42.69
48035;BME280;33812;46.480;6.834;2023-11-19T10:31:56;94059.41;;;21.95;42.42
48035;BME280;33812;46.480;6.834;2023-11-19T10:36:00;94057.50;;;21.92;42.81
48035;BME280;33812;46.480;6.834;2023-11-19T10:40:01;94055.41;;;21.96;42.93
48035;BME280;33812;46.480;6.834;2023-11-19T10:44:05;94056.19;;;21.97;43.06
48035;BME280;33812;46.480;6.834;2023-11-19T10:48:08;94065.28;;;21.97;43.14
48035;BME280;33812;46.480;6.834;2023-11-19T10:52:17;94061.63;;;22.01;43.51
48035;BME280;33812;46.480;6.834;2023-11-19T10:56:20;94071.13;;;22.00;43.38
48035;BME280;33812;46.480;6.834;2023-11-19T11:00:25;94075.13;;;21.98;42.65
48035;BME280;33812;46.480;6.834;2023-11-19T11:04:30;94077.09;;;21.98;42.69
48035;BME280;33812;46.480;6.834;2023-11-19T11:08:36;94062.06;;;21.99;42.61
48035;BME280;33812;46.480;6.834;2023-11-19T11:12:40;94056.09;;;22.01;42.77
48035;BME280;33812;46.480;6.834;2023-11-19T11:16:43;94052.19;;;21.98;43.64
48035;BME280;33812;46.480;6.834;2023-11-19T11:20:46;94047.88;;;21.97;43.96
48035;BME280;33812;46.480;6.834;2023-11-19T11:25:11;94046.75;;;21.94;43.24
48035;BME280;33812;46.480;6.834;2023-11-19T11:29:26;94043.47;;;22.00;42.96
48035;BME280;33812;46.480;6.834;2023-11-19T11:33:41;94051.09;;;21.95;42.91
48035;BME280;33812;46.480;6.834;2023-11-19T11:37:50;94053.53;;;21.93;43.08
48035;BME280;33812;46.480;6.834;2023-11-19T11:42:32;94044.78;;;21.95;43.29
48035;BME280;33812;46.480;6.834;2023-11-19T11:46:53;94042.78;;;21.95;43.36
48035;BME280;33812;46.480;6.834;2023-11-19T11:50:57;94039.59;;;21.97;43.52
48035;BME280;33812;46.480;6.834;2023-11-19T11:55:04;94035.69;;;21.94;43.74
48035;BME280;33812;46.480;6.834;2023-11-19T11:59:18;94024.31;;;21.92;43.84
48035;BME280;33812;46.480;6.834;2023-11-19T12:03:21;94032.94;;;21.94;43.83
48035;BME280;33812;46.480;6.834;2023-11-19T12:07:24;94020.66;;;21.95;43.83
48035;BME280;33812;46.480;6.834;2023-11-19T12:11:28;94018.34;;;21.94;43.84
48035;BME280;33812;46.480;6.834;2023-11-19T12:16:10;94024.63;;;21.94;43.91
48035;BME280;33812;46.480;6.834;2023-11-19T12:20:13;94017.56;;;21.93;44.13
48035;BME280;33812;46.480;6.834;2023-11-19T12:24:15;94029.06;;;21.92;44.07
48035;BME280;33812;46.480;6.834;2023-11-19T12:28:18;94032.59;;;21.92;44.01
48035;BME280;33812;46.480;6.834;2023-11-19T12:32:21;94020.31;;;21.93;44.04
48035;BME280;33812;46.480;6.834;2023-11-19T12:36:24;94021.53;;;21.92;44.03
48035;BME280;33812;46.480;6.834;2023-11-19T12:40:26;94021.53;;;21.92;43.75
48035;BME280;33812;46.480;6.834;2023-11-19T12:44:29;94029.31;;;21.97;44.16
48035;BME280;33812;46.480;6.834;2023-11-19T12:48:32;94015.13;;;21.95;43.96
48035;BME280;33812;46.480;6.834;2023-11-19T12:52:34;94008.38;;;21.96;44.05
48035;BME280;33812;46.480;6.834;2023-11-19T12:56:36;94008.72;;;21.98;43.90
48035;BME280;33812;46.480;6.834;2023-11-19T13:00:38;94013.91;;;21.96;43.97
48035;BME280;33812;46.480;6.834;2023-11-19T13:04:42;94012.69;;;21.97;43.81
48035;BME280;33812;46.480;6.834;2023-11-19T13:08:45;94006.03;;;21.95;43.89
48035;BME280;33812;46.480;6.834;2023-11-19T13:12:59;94000.94;;;21.93;43.97
48035;BME280;33812;46.480;6.834;2023-11-19T13:17:01;93985.22;;;21.90;43.99
48035;BME280;33812;46.480;6.834;2023-11-19T13:21:05;93995.41;;;21.93;44.05
48035;BME280;33812;46.480;6.834;2023-11-19T13:25:08;93995.84;;;21.92;43.90
48035;BME280;33812;46.480;6.834;2023-11-19T13:29:10;94008.91;;;21.91;44.06
48035;BME280;33812;46.480;6.834;2023-11-19T13:33:12;94004.59;;;21.90;44.29
48035;BME280;33812;46.480;6.834;2023-11-19T13:37:15;94002.94;;;21.93;44.25
48035;BME280;33812;46.480;6.834;2023-11-19T13:41:17;93990.84;;;21.86;44.34
48035;BME280;33812;46.480;6.834;2023-11-19T13:45:19;93994.06;;;21.85;44.35
48035;BME280;33812;46.480;6.834;2023-11-19T13:49:22;94000.69;;;21.88;44.15
48035;BME280;33812;46.480;6.834;2023-11-19T13:53:25;93998.72;;;21.88;44.30
48035;BME280;33812;46.480;6.834;2023-11-19T13:57:30;93992.28;;;21.91;44.39
48035;BME280;33812;46.480;6.834;2023-11-19T14:01:31;93989.97;;;21.90;44.37
48035;BME280;33812;46.480;6.834;2023-11-19T14:05:33;93970.06;;;21.95;44.10
48035;BME280;33812;46.480;6.834;2023-11-19T14:09:37;93974.41;;;21.96;44.29
48035;BME280;33812;46.480;6.834;2023-11-19T14:13:38;93985.88;;;21.94;44.18
48035;BME280;33812;46.480;6.834;2023-11-19T14:17:40;93989.69;;;22.01;43.92
48035;BME280;33812;46.480;6.834;2023-11-19T14:21:42;93993.00;;;21.95;43.95
48035;BME280;33812;46.480;6.834;2023-11-19T14:25:48;93982.91;;;22.02;44.27
48035;BME280;33812;46.480;6.834;2023-11-19T14:29:50;93981.38;;;22.01;43.96
48035;BME280;33812;46.480;6.834;2023-11-19T14:33:52;93981.03;;;21.98;43.62
48035;BME280;33812;46.480;6.834;2023-11-19T14:37:54;93980.59;;;22.00;43.74
48035;BME280;33812;46.480;6.834;2023-11-19T14:41:57;93970.41;;;21.97;43.78
48035;BME280;33812;46.480;6.834;2023-11-19T14:46:01;93967.97;;;21.99;43.47
48035;BME280;33812;46.480;6.834;2023-11-19T14:50:04;93970.31;;;22.01;43.40
48035;BME280;33812;46.480;6.834;2023-11-19T14:54:07;93975.75;;;22.04;43.34
48035;BME280;33812;46.480;6.834;2023-11-19T14:58:10;93961.47;;;22.06;43.12
48035;BME280;33812;46.480;6.834;2023-11-19T15:02:12;93958.47;;;22.00;43.20
48035;BME280;33812;46.480;6.834;2023-11-19T15:06:13;93969.09;;;22.02;43.20
48035;BME280;33812;46.480;6.834;2023-11-19T15:10:15;93963.53;;;22.02;42.97
48035;BME280;33812;46.480;6.834;2023-11-19T15:14:18;93968.75;;;22.00;43.04
48035;BME280;33812;46.480;6.834;2023-11-19T15:18:20;93962.00;;;22.01;43.12
48035;BME280;33812;46.480;6.834;2023-11-19T15:22:22;93964.44;;;21.98;42.97
48035;BME280;33812;46.480;6.834;2023-11-19T15:26:24;93970.75;;;21.99;43.05
48035;BME280;33812;46.480;6.834;2023-11-19T15:30:27;93968.88;;;21.96;43.01
48035;BME280;33812;46.480;6.834;2023-11-19T15:34:29;93972.03;;;21.94;43.04
48035;BME280;33812;46.480;6.834;2023-11-19T15:38:31;93971.28;;;21.94;42.86
48035;BME280;33812;46.480;6.834;2023-11-19T15:42:32;93991.41;;;21.94;42.93
48035;BME280;33812;46.480;6.834;2023-11-19T15:46:35;93986.31;;;21.93;42.80
48035;BME280;33812;46.480;6.834;2023-11-19T15:50:38;93989.09;;;21.93;42.76
48035;BME280;33812;46.480;6.834;2023-11-19T15:54:40;93987.22;;;21.90;42.69
48035;BME280;33812;46.480;6.834;2023-11-19T15:58:41;93955.88;;;21.93;42.85
48035;BME280;33812;46.480;6.834;2023-11-19T16:02:45;93963.75;;;21.94;42.58
48035;BME280;33812;46.480;6.834;2023-11-19T16:06:46;93967.41;;;21.91;42.76
48035;BME280;33812;46.480;6.834;2023-11-19T16:10:48;93970.16;;;21.91;42.66
48035;BME280;33812;46.480;6.834;2023-11-19T16:14:51;93978.03;;;21.93;42.74
48035;BME280;33812;46.480;6.834;2023-11-19T16:18:54;93972.50;;;21.93;42.73
48035;BME280;33812;46.480;6.834;2023-11-19T16:22:56;93985.88;;;21.94;42.40
48035;BME280;33812;46.480;6.834;2023-11-19T16:26:59;94003.19;;;21.98;42.26
48035;BME280;33812;46.480;6.834;2023-11-19T16:31:01;93990.56;;;21.97;42.51
48035;BME280;33812;46.480;6.834;2023-11-19T16:35:05;93993.34;;;21.97;42.36
48035;BME280;33812;46.480;6.834;2023-11-19T16:39:11;93999.19;;;22.00;42.33
48035;BME280;33812;46.480;6.834;2023-11-19T16:43:13;93997.53;;;22.02;42.95
48035;BME280;33812;46.480;6.834;2023-11-19T16:47:15;93997.53;;;22.02;43.26
48035;BME280;33812;46.480;6.834;2023-11-19T16:51:18;94000.75;;;22.01;43.18
48035;BME280;33812;46.480;6.834;2023-11-19T16:55:20;94017.34;;;22.01;43.29
48035;BME280;33812;46.480;6.834;2023-11-19T16:59:22;94022.78;;;22.04;42.96
48035;BME280;33812;46.480;6.834;2023-11-19T17:03:24;94041.81;;;22.02;43.35
48035;BME280;33812;46.480;6.834;2023-11-19T17:07:27;94042.25;;;22.01;43.40
48035;BME280;33812;46.480;6.834;2023-11-19T17:11:30;94043.91;;;21.98;43.23
48035;BME280;33812;46.480;6.834;2023-11-19T17:15:32;94036.28;;;22.02;43.75
48035;BME280;33812;46.480;6.834;2023-11-19T17:19:35;94041.91;;;21.98;44.26
48035;BME280;33812;46.480;6.834;2023-11-19T17:23:39;94035.50;;;22.02;44.24
48035;BME280;33812;46.480;6.834;2023-11-19T17:27:41;94033.97;;;22.01;44.07
48035;BME280;33812;46.480;6.834;2023-11-19T17:31:43;94043.13;;;21.97;44.33
48035;BME280;33812;46.480;6.834;2023-11-19T17:35:45;94041.13;;;21.98;44.38
48035;BME280;33812;46.480;6.834;2023-11-19T17:39:48;94042.34;;;21.97;44.09
48035;BME280;33812;46.480;6.834;2023-11-19T17:43:51;94045.22;;;21.93;44.30
48035;BME280;33812;46.480;6.834;2023-11-19T17:47:53;94068.50;;;21.96;44.20
48035;BME280;33812;46.480;6.834;2023-11-19T17:51:55;94077.53;;;21.96;44.40
48035;BME280;33812;46.480;6.834;2023-11-19T17:55:58;94084.75;;;21.94;44.22
48035;BME280;33812;46.480;6.834;2023-11-19T18:00:00;94074.34;;;21.98;44.26
48035;BME280;33812;46.480;6.834;2023-11-19T18:04:06;94073.22;;;21.95;44.48
48035;BME280;33812;46.480;6.834;2023-11-19T18:08:07;94065.72;;;21.96;44.33
48035;BME280;33812;46.480;6.834;2023-11-19T18:12:11;94058.09;;;22.00;44.65
48035;BME280;33812;46.480;6.834;2023-11-19T18:16:13;94054.53;;;22.00;44.60
48035;BME280;33812;46.480;6.834;2023-11-19T18:20:17;94058.53;;;21.98;44.33
48035;BME280;33812;46.480;6.834;2023-11-19T18:24:19;94070.19;;;22.06;44.21
48035;BME280;33812;46.480;6.834;2023-11-19T18:28:23;94061.53;;;22.04;43.95
48035;BME280;33812;46.480;6.834;2023-11-19T18:32:27;94064.75;;;22.03;43.80
48035;BME280;33812;46.480;6.834;2023-11-19T18:36:33;94069.06;;;22.04;43.84
48035;BME280;33812;46.480;6.834;2023-11-19T18:40:36;94080.47;;;22.06;43.87
48035;BME280;33812;46.480;6.834;2023-11-19T18:44:41;94082.91;;;22.04;44.29
48035;BME280;33812;46.480;6.834;2023-11-19T18:48:43;94085.22;;;22.05;44.74
48035;BME280;33812;46.480;6.834;2023-11-19T18:52:45;94070.19;;;22.06;44.98
48035;BME280;33812;46.480;6.834;2023-11-19T18:56:47;94069.41;;;22.06;44.98
48035;BME280;33812;46.480;6.834;2023-11-19T19:00:50;94071.81;;;22.04;44.96
48035;BME280;33812;46.480;6.834;2023-11-19T19:04:52;94069.50;;;22.02;45.35
48035;BME280;33812;46.480;6.834;2023-11-19T19:08:53;94076.81;;;22.09;45.33
48035;BME280;33812;46.480;6.834;2023-11-19T19:12:56;94083.59;;;22.08;45.86
48035;BME280;33812;46.480;6.834;2023-11-19T19:16:59;94081.66;;;22.05;45.79
48035;BME280;33812;46.480;6.834;2023-11-19T19:21:01;94091.88;;;22.08;46.26
48035;BME280;33812;46.480;6.834;2023-11-19T19:25:03;94092.63;;;22.25;42.36
48035;BME280;33812;46.480;6.834;2023-11-19T19:29:06;94087.44;;;21.81;42.34
48035;BME280;33812;46.480;6.834;2023-11-19T19:33:10;94082.41;;;21.92;40.56
48035;BME280;33812;46.480;6.834;2023-11-19T19:37:12;94088.34;;;22.07;39.52
48035;BME280;33812;46.480;6.834;2023-11-19T19:41:14;94081.47;;;21.49;41.30
48035;BME280;33812;46.480;6.834;2023-11-19T19:45:16;94077.25;;;21.44;41.54
48035;BME280;33812;46.480;6.834;2023-11-19T19:49:19;94071.53;;;21.52;42.07
48035;BME280;33812;46.480;6.834;2023-11-19T19:53:21;94067.72;;;21.62;42.17
48035;BME280;33812;46.480;6.834;2023-11-19T19:57:23;94063.41;;;21.61;42.28
48035;BME280;33812;46.480;6.834;2023-11-19T20:01:25;94068.94;;;21.61;42.83
48035;BME280;33812;46.480;6.834;2023-11-19T20:05:28;94060.66;;;21.61;42.99
48035;BME280;33812;46.480;6.834;2023-11-19T20:09:30;94055.88;;;21.61;43.12
48035;BME280;33812;46.480;6.834;2023-11-19T20:13:34;94058.56;;;21.65;43.28
48035;BME280;33812;46.480;6.834;2023-11-19T20:17:37;94066.41;;;21.67;43.16
48035;BME280;33812;46.480;6.834;2023-11-19T20:21:40;94062.47;;;21.68;43.25
48035;BME280;33812;46.480;6.834;2023-11-19T20:25:42;94059.34;;;21.66;43.56
48035;BME280;33812;46.480;6.834;2023-11-19T20:29:47;94064.88;;;21.66;43.55
48035;BME280;33812;46.480;6.834;2023-11-19T20:33:48;94056.22;;;21.64;43.80
48035;BME280;33812;46.480;6.834;2023-11-19T20:37:52;94055.34;;;21.67;43.65
48035;BME280;33812;46.480;6.834;2023-11-19T20:41:53;94060.88;;;21.67;43.51
48035;BME280;33812;46.480;6.834;2023-11-19T20:45:55;94056.13;;;21.67;43.65
48035;BME280;33812;46.480;6.834;2023-11-19T20:49:57;94060.88;;;21.67;43.82
48035;BME280;33812;46.480;6.834;2023-11-19T20:54:00;94054.47;;;21.70;43.64
48035;BME280;33812;46.480;6.834;2023-11-19T20:58:02;94056.84;;;21.71;43.47
48035;BME280;33812;46.480;6.834;2023-11-19T21:02:06;94061.94;;;21.73;43.44
48035;BME280;33812;46.480;6.834;2023-11-19T21:06:08;94061.50;;;21.74;43.31
48035;BME280;33812;46.480;6.834;2023-11-19T21:10:11;94053.19;;;21.74;43.30
48035;BME280;33812;46.480;6.834;2023-11-19T21:14:15;94052.75;;;21.76;43.33
48035;BME280;33812;46.480;6.834;2023-11-19T21:18:18;94055.97;;;21.74;43.39
48035;BME280;33812;46.480;6.834;2023-11-19T21:22:19;94058.28;;;21.76;43.25
48035;BME280;33812;46.480;6.834;2023-11-19T21:26:22;94067.78;;;21.75;43.23